Time;durP1;ratioP1;P1;durP2;ratioP2;P2;SDS_P1;SDS_P2;PMS_P1;PMS_P2;Temp;Humidity;BMP_temperature;BMP_pressure;BME280_temperature;BME280_humidity;BME280_pressure;Samples;Min_cycle;Max_cycle;Signal;HPM_P1;HPM_P2
2023/03/20 00:01:46;;;;;;;11.17;9.70;;;7.40;28.00;;;;;;5072990;28;20895;-50
2023/03/20 00:04:13;;;;;;;12.30;8.67;;;7.30;28.80;;;;;;5076752;28;20461;-51
2023/03/20 00:06:39;;;;;;;9.50;8.27;;;7.30;29.90;;;;;;5071895;28;21032;-51
2023/03/20 00:09:07;;;;;;;8.70;7.43;;;7.30;29.90;;;;;;5075521;28;20545;-53
2023/03/20 00:11:35;;;;;;;15.60;8.97;;;7.20;30.40;;;;;;5083292;28;20475;-51
2023/03/20 00:14:06;;;;;;;17.50;10.90;;;7.20;31.30;;;;;;5064414;28;20512;-51
2023/03/20 00:16:34;;;;;;;18.00;10.73;;;7.20;32.10;;;;;;5086464;28;20484;-50
2023/03/20 00:19:02;;;;;;;18.83;11.50;;;7.10;32.50;;;;;;5074054;28;20485;-51
2023/03/20 00:21:29;;;;;;;12.57;9.10;;;7.10;32.70;;;;;;5077067;28;20468;-50
2023/03/20 00:23:56;;;;;;;11.47;9.17;;;7.10;33.80;;;;;;5074255;28;20481;-51
2023/03/20 00:26:27;;;;;;;16.67;7.73;;;7.10;34.60;;;;;;5069633;28;20538;-52
2023/03/20 00:28:55;;;;;;;12.87;8.37;;;7.10;34.40;;;;;;5060303;28;20497;-50
2023/03/20 00:31:26;;;;;;;34.20;17.80;;;7.00;35.10;;;;;;5072090;28;20461;-52
2023/03/20 00:33:54;;;;;;;34.67;18.07;;;7.00;34.90;;;;;;5058808;28;20847;-51
2023/03/20 00:36:21;;;;;;;36.23;17.27;;;6.90;35.10;;;;;;5074979;28;20934;-51
2023/03/20 00:38:48;;;;;;;26.77;15.03;;;6.80;35.50;;;;;;5071630;28;20506;-51
2023/03/20 00:41:23;;;;;;;23.40;14.40;;;6.80;35.20;;;;;;5072158;28;20485;-52
2023/03/20 00:43:52;;;;;;;35.70;18.87;;;6.80;36.10;;;;;;5065174;28;21089;-52
2023/03/20 00:46:19;;;;;;;26.97;16.63;;;6.80;37.10;;;;;;5066788;28;20531;-51
2023/03/20 00:48:48;;;;;;;38.47;22.23;;;6.80;37.60;;;;;;5068284;28;20484;-50
2023/03/20 00:51:14;;;;;;;32.63;17.50;;;6.70;37.20;;;;;;5082079;28;20454;-50
2023/03/20 00:53:41;;;;;;;24.70;14.53;;;6.70;37.70;;;;;;5076323;28;20471;-50
2023/03/20 00:56:30;;;;;;;18.00;11.70;;;6.60;38.10;;;;;;5071023;28;20444;-52
2023/03/20 00:58:57;;;;;;;16.00;11.30;;;6.60;38.50;;;;;;5071900;28;20489;-52
2023/03/20 01:01:24;;;;;;;15.20;11.90;;;6.60;39.00;;;;;;5077870;28;21080;-52
2023/03/20 01:03:52;;;;;;;28.70;14.20;;;6.50;38.10;;;;;;5056802;28;20482;-51
2023/03/20 01:06:18;;;;;;;19.93;12.10;;;6.50;36.40;;;;;;5073035;28;20512;-50
2023/03/20 01:08:47;;;;;;;16.13;11.30;;;6.50;39.30;;;;;;5076498;28;20549;-51
2023/03/20 01:11:23;;;;;;;16.50;10.53;;;6.50;39.40;;;;;;5088870;28;20878;-52
2023/03/20 01:13:51;;;;;;;23.17;14.03;;;6.50;39.70;;;;;;5067426;28;20458;-51
2023/03/20 01:16:21;;;;;;;18.33;12.50;;;6.40;39.90;;;;;;5089114;28;20558;-51
2023/03/20 01:18:48;;;;;;;30.23;20.97;;;6.40;39.50;;;;;;5084729;28;20509;-51
2023/03/20 01:21:16;;;;;;;23.27;15.30;;;6.40;39.60;;;;;;5057911;28;20516;-52
2023/03/20 01:23:43;;;;;;;29.23;19.93;;;6.40;40.10;;;;;;5080171;28;20465;-51
2023/03/20 01:26:21;;;;;;;14.73;12.10;;;6.50;40.90;;;;;;5089471;28;20472;-50
2023/03/20 01:28:48;;;;;;;12.27;10.77;;;6.50;41.20;;;;;;5071999;28;20998;-50
2023/03/20 01:31:15;;;;;;;8.90;7.27;;;6.60;42.10;;;;;;5069383;28;20470;-50
2023/03/20 01:33:41;;;;;;;7.10;6.10;;;6.60;41.20;;;;;;5079741;28;20492;-50
2023/03/20 01:36:10;;;;;;;10.43;8.40;;;6.60;41.40;;;;;;5080624;28;20492;-51
2023/03/20 01:38:39;;;;;;;9.30;7.80;;;6.70;40.10;;;;;;5067280;28;20485;-50
2023/03/20 01:41:10;;;;;;;20.03;8.43;;;6.70;39.10;;;;;;5084597;28;20510;-51
2023/03/20 01:43:37;;;;;;;9.23;8.27;;;6.80;38.60;;;;;;5080794;28;20441;-51
2023/03/20 01:46:20;;;;;;;11.40;9.40;;;6.80;37.30;;;;;;5075638;28;20520;-51
2023/03/20 01:49:06;;;;;;;13.60;8.80;;;6.80;34.80;;;;;;5089030;28;21286;-51
2023/03/20 01:51:35;;;;;;;9.37;8.03;;;6.80;34.00;;;;;;5082495;28;20445;-51
2023/03/20 01:54:07;;;;;;;11.50;8.30;;;6.80;34.10;;;;;;5074174;28;20936;-51
2023/03/20 01:56:38;;;;;;;7.77;6.97;;;6.90;33.60;;;;;;5070427;28;20956;-51
2023/03/20 01:59:09;;;;;;;7.97;6.60;;;6.90;32.70;;;;;;5076162;28;20488;-51
2023/03/20 02:01:37;;;;;;;7.37;5.67;;;6.90;32.10;;;;;;5064240;28;20848;-51
2023/03/20 02:04:05;;;;;;;6.87;6.27;;;6.90;31.20;;;;;;5075677;28;20466;-51
2023/03/20 02:06:32;;;;;;;6.00;5.50;;;7.00;31.10;;;;;;5053591;28;20529;-50
2023/03/20 02:08:59;;;;;;;6.63;6.13;;;7.00;31.20;;;;;;5073027;28;21105;-52
2023/03/20 02:11:27;;;;;;;7.27;6.13;;;7.00;31.10;;;;;;5072730;28;20493;-51
2023/03/20 02:13:57;;;;;;;7.17;6.20;;;7.00;30.40;;;;;;5064175;28;20884;-51
2023/03/20 02:16:24;;;;;;;6.10;5.50;;;7.00;30.10;;;;;;5055752;28;20500;-51
2023/03/20 02:18:55;;;;;;;6.23;5.20;;;7.00;30.10;;;;;;5070525;28;20483;-52
2023/03/20 02:21:55;;;;;;;5.80;5.40;;;7.00;29.50;;;;;;5060504;28;20454;-51
2023/03/20 02:24:54;;;;;;;9.00;6.10;;;7.00;28.80;;;;;;5071411;28;20511;-51
2023/03/20 02:27:34;;;;;;;14.03;6.80;;;6.90;28.50;;;;;;5059731;28;20489;-50
2023/03/20 02:30:37;;;;;;;7.53;6.20;;;6.80;28.90;;;;;;5059211;28;20481;-51
2023/03/20 02:33:27;;;;;;;7.17;6.10;;;6.80;28.70;;;;;;5060040;28;20479;-51
2023/03/20 02:36:42;;;;;;;7.00;6.03;;;6.80;28.90;;;;;;5051777;28;20473;-51
2023/03/20 02:39:42;;;;;;;6.90;6.27;;;6.80;29.20;;;;;;4970835;28;20474;-50
2023/03/20 02:42:16;;;;;;;6.50;5.90;;;6.90;28.90;;;;;;5064409;28;20538;-50
2023/03/20 02:44:53;;;;;;;7.73;5.80;;;6.90;28.00;;;;;;5055151;28;20463;-52
2023/03/20 02:47:23;;;;;;;8.87;5.70;;;7.00;27.90;;;;;;5060901;28;20493;-51
2023/03/20 02:49:55;;;;;;;7.20;5.50;;;7.00;27.70;;;;;;5052700;28;20498;-50
2023/03/20 02:52:31;;;;;;;6.13;5.53;;;7.10;27.60;;;;;;5051766;28;20445;-51
2023/03/20 02:55:10;;;;;;;9.90;5.63;;;7.10;27.00;;;;;;5054513;28;20492;-50
2023/03/20 02:57:46;;;;;;;7.33;6.23;;;7.10;26.60;;;;;;5062899;28;20935;-52
2023/03/20 03:00:20;;;;;;;6.23;5.17;;;7.10;26.40;;;;;;5065646;28;20500;-50
2023/03/20 03:02:51;;;;;;;5.90;5.30;;;7.20;26.30;;;;;;5061157;28;20449;-50
2023/03/20 03:05:24;;;;;;;7.33;5.60;;;7.20;25.80;;;;;;5074809;28;21008;-50
2023/03/20 03:07:55;;;;;;;13.70;6.60;;;7.20;25.10;;;;;;5064846;28;20557;-51
2023/03/20 03:10:28;;;;;;;6.70;5.03;;;7.30;25.10;;;;;;5071328;28;20457;-52
2023/03/20 03:12:57;;;;;;;7.17;5.47;;;7.30;24.60;;;;;;5071627;28;20869;-51
2023/03/20 03:15:28;;;;;;;7.50;6.33;;;7.30;24.40;;;;;;5057595;28;20458;-52
2023/03/20 03:17:57;;;;;;;6.10;5.50;;;7.30;24.20;;;;;;5065338;28;20951;-51
2023/03/20 03:20:28;;;;;;;8.37;6.90;;;7.30;23.90;;;;;;5061661;28;20870;-51
2023/03/20 03:22:55;;;;;;;6.90;5.53;;;7.40;23.70;;;;;;5078242;28;20507;-51
2023/03/20 03:25:27;;;;;;;10.10;6.40;;;7.40;23.60;;;;;;5060147;28;20454;-51
2023/03/20 03:27:59;;;;;;;7.53;5.60;;;7.40;23.50;;;;;;5066574;28;20523;-51
2023/03/20 03:30:30;;;;;;;6.00;5.50;;;7.50;23.40;;;;;;5069295;28;20631;-52
2023/03/20 03:33:09;;;;;;;7.10;6.27;;;7.40;23.30;;;;;;5077882;28;20493;-51
2023/03/20 03:35:36;;;;;;;6.77;5.83;;;7.40;23.40;;;;;;5079268;28;20466;-52
2023/03/20 03:38:12;;;;;;;8.57;5.57;;;7.40;23.50;;;;;;5069253;28;20519;-52
2023/03/20 03:40:44;;;;;;;6.40;5.80;;;7.40;23.80;;;;;;5084290;28;20998;-51
2023/03/20 03:43:17;;;;;;;23.97;5.67;;;7.50;23.40;;;;;;5076942;28;20459;-51
2023/03/20 03:45:49;;;;;;;7.90;6.10;;;7.50;23.50;;;;;;5064026;28;20902;-52
2023/03/20 03:48:20;;;;;;;7.23;6.00;;;7.50;21.60;;;;;;5072803;28;21032;-52
2023/03/20 03:50:50;;;;;;;9.97;5.50;;;7.50;23.20;;;;;;5070639;28;20526;-52
2023/03/20 03:53:21;;;;;;;5.87;5.33;;;7.50;23.10;;;;;;5072805;28;20471;-51
2023/03/20 03:55:52;;;;;;;6.50;5.37;;;7.60;23.00;;;;;;5074964;28;20502;-50
2023/03/20 03:58:23;;;;;;;7.83;5.73;;;7.50;22.90;;;;;;5059098;28;20576;-52
2023/03/20 04:00:51;;;;;;;5.87;5.37;;;7.50;22.90;;;;;;5085530;28;20484;-52
2023/03/20 04:03:22;;;;;;;7.07;5.50;;;7.50;23.10;;;;;;5083505;28;20482;-52
2023/03/20 04:05:51;;;;;;;5.80;5.30;;;7.50;23.20;;;;;;5071787;28;20473;-52
2023/03/20 04:08:18;;;;;;;5.83;5.33;;;7.50;23.30;;;;;;5072730;28;20881;-50
2023/03/20 04:10:49;;;;;;;6.67;5.47;;;7.60;23.30;;;;;;5079178;28;20485;-51
2023/03/20 04:13:16;;;;;;;10.33;6.20;;;7.50;23.00;;;;;;5094128;28;20452;-50
2023/03/20 04:15:42;;;;;;;10.00;6.83;;;7.50;22.90;;;;;;5085965;28;20966;-51
2023/03/20 04:18:10;;;;;;;5.70;5.17;;;7.50;23.30;;;;;;5062770;28;20827;-50
2023/03/20 04:20:37;;;;;;;8.87;5.90;;;7.60;23.20;;;;;;5072917;28;20492;-52
2023/03/20 04:23:04;;;;;;;6.63;5.40;;;7.60;23.00;;;;;;5082494;28;20483;-50
2023/03/20 04:25:31;;;;;;;5.97;5.37;;;7.60;23.30;;;;;;5081446;28;20525;-51
2023/03/20 04:27:59;;;;;;;7.30;6.07;;;7.60;23.20;;;;;;5060353;28;20515;-50
2023/03/20 04:30:26;;;;;;;6.20;5.17;;;7.60;23.20;;;;;;5079542;28;20512;-51
2023/03/20 04:32:52;;;;;;;5.87;5.27;;;7.60;23.20;;;;;;5054520;28;20536;-52
2023/03/20 04:35:19;;;;;;;7.10;6.10;;;7.60;23.20;;;;;;5076272;28;20495;-51
2023/03/20 04:37:46;;;;;;;10.47;7.47;;;7.60;23.20;;;;;;5063738;28;20475;-50
2023/03/20 04:40:13;;;;;;;6.23;5.67;;;7.60;23.10;;;;;;5070965;28;20492;-51
2023/03/20 04:42:39;;;;;;;8.77;6.70;;;7.70;23.50;;;;;;5090949;28;20879;-51
2023/03/20 04:45:09;;;;;;;7.77;6.30;;;7.70;22.30;;;;;;5073525;28;20943;-50
2023/03/20 04:47:36;;;;;;;6.67;6.03;;;7.70;23.40;;;;;;5079792;28;20491;-51
2023/03/20 04:50:02;;;;;;;6.50;5.90;;;7.70;22.80;;;;;;5071221;28;20481;-51
2023/03/20 04:52:29;;;;;;;8.60;6.00;;;7.60;21.10;;;;;;5082769;28;20445;-52
2023/03/20 04:54:55;;;;;;;5.87;5.37;;;7.60;23.10;;;;;;5079576;28;20460;-52
2023/03/20 04:57:22;;;;;;;7.30;5.90;;;7.60;23.20;;;;;;5069485;28;20506;-52
2023/03/20 04:59:48;;;;;;;5.67;5.17;;;7.60;23.10;;;;;;5081384;28;20555;-51
2023/03/20 05:02:16;;;;;;;5.93;5.30;;;7.60;23.00;;;;;;5060429;28;20446;-52
2023/03/20 05:04:43;;;;;;;5.90;5.40;;;7.60;22.70;;;;;;5066817;28;20462;-51
2023/03/20 05:07:10;;;;;;;6.60;5.33;;;7.60;22.50;;;;;;5069365;28;20544;-50
2023/03/20 05:09:36;;;;;;;6.10;5.57;;;7.60;22.80;;;;;;5065471;28;20509;-52
2023/03/20 05:12:03;;;;;;;6.00;5.50;;;7.60;22.70;;;;;;5086974;28;20976;-51
2023/03/20 05:14:30;;;;;;;9.07;5.63;;;7.60;22.80;;;;;;5075734;28;20490;-51
2023/03/20 05:16:56;;;;;;;10.30;5.37;;;7.60;22.50;;;;;;5074513;28;20496;-51
2023/03/20 05:19:24;;;;;;;6.07;5.60;;;7.60;22.70;;;;;;5065536;28;20520;-51
2023/03/20 05:21:51;;;;;;;6.20;5.70;;;7.60;22.20;;;;;;5082296;28;20601;-52
2023/03/20 05:24:17;;;;;;;6.50;5.83;;;7.60;22.20;;;;;;5066693;28;20497;-51
2023/03/20 05:26:44;;;;;;;6.83;6.10;;;7.60;22.40;;;;;;5076788;28;20512;-51
2023/03/20 05:29:10;;;;;;;6.30;5.50;;;7.60;22.40;;;;;;5086366;28;20480;-50
2023/03/20 05:31:37;;;;;;;8.40;6.50;;;7.60;22.50;;;;;;5073852;28;20906;-50
2023/03/20 05:34:04;;;;;;;13.67;8.47;;;7.70;22.50;;;;;;5075573;28;20489;-52
2023/03/20 05:36:32;;;;;;;7.93;7.13;;;7.70;22.40;;;;;;5065537;28;20450;-51
2023/03/20 05:38:59;;;;;;;9.20;8.30;;;7.70;22.40;;;;;;5076387;28;20888;-51
2023/03/20 05:41:25;;;;;;;13.07;7.00;;;7.70;22.50;;;;;;5071945;28;20467;-50
2023/03/20 05:43:52;;;;;;;6.83;6.10;;;7.70;23.10;;;;;;5068993;28;20549;-52
2023/03/20 05:46:19;;;;;;;8.50;7.70;;;7.70;21.90;;;;;;5075211;28;20458;-52
2023/03/20 05:48:45;;;;;;;6.80;6.07;;;7.80;22.40;;;;;;5059505;28;20522;-52
2023/03/20 05:51:12;;;;;;;6.63;6.03;;;7.80;21.60;;;;;;5057329;28;20545;-51
2023/03/20 05:53:40;;;;;;;7.60;6.83;;;7.90;20.90;;;;;;5069636;28;20499;-51
2023/03/20 05:56:08;;;;;;;10.27;6.87;;;7.90;20.30;;;;;;5076210;28;20837;-50
2023/03/20 05:58:35;;;;;;;7.93;7.17;;;8.00;71.60;;;;;;5078508;28;20517;-51
2023/03/20 06:01:02;;;;;;;15.63;8.10;;;8.10;71.80;;;;;;5079360;28;20465;-50
2023/03/20 06:03:28;;;;;;;10.50;9.33;;;8.20;20.20;;;;;;5068167;28;20492;-51
2023/03/20 06:05:55;;;;;;;13.33;10.00;;;8.30;20.80;;;;;;5073645;28;20498;-50
2023/03/20 06:08:21;;;;;;;11.80;9.77;;;8.30;20.10;;;;;;5064396;28;20485;-50
2023/03/20 06:10:51;;;;;;;11.83;10.33;;;8.30;20.70;;;;;;5054936;28;20950;-50
2023/03/20 06:13:18;;;;;;;12.87;11.50;;;8.40;20.40;;;;;;5060011;28;20521;-50
2023/03/20 06:15:45;;;;;;;14.93;12.87;;;8.50;20.30;;;;;;5091417;28;20472;-52
2023/03/20 06:18:11;;;;;;;14.07;12.47;;;8.40;76.30;;;;;;5066961;28;20535;-51
2023/03/20 06:20:38;;;;;;;17.40;15.13;;;8.40;81.90;;;;;;5063088;28;20527;-51
2023/03/20 06:23:05;;;;;;;23.13;18.80;;;8.40;82.40;;;;;;5066001;28;20511;-50
2023/03/20 06:25:31;;;;;;;24.00;20.10;;;8.40;85.30;;;;;;5070122;28;20532;-52
2023/03/20 06:28:00;;;;;;;27.17;20.60;;;8.40;80.10;;;;;;5062584;28;20517;-51
2023/03/20 06:30:26;;;;;;;27.50;22.17;;;8.40;82.70;;;;;;5062434;28;20667;-50
2023/03/20 06:32:53;;;;;;;28.83;22.30;;;8.30;87.50;;;;;;5081931;28;20492;-51
2023/03/20 06:35:19;;;;;;;29.10;23.40;;;8.30;76.90;;;;;;5059817;28;20489;-51
2023/03/20 06:37:46;;;;;;;35.60;22.43;;;8.40;72.20;;;;;;5070048;28;20540;-50
2023/03/20 06:40:13;;;;;;;31.23;23.73;;;8.30;79.70;;;;;;5056125;28;20536;-49
2023/03/20 06:42:39;;;;;;;33.40;24.60;;;8.30;80.70;;;;;;5061922;28;20493;-50
2023/03/20 06:45:08;;;;;;;27.53;23.10;;;8.40;75.70;;;;;;5075337;28;21051;-50
2023/03/20 06:47:35;;;;;;;31.40;23.67;;;8.40;77.00;;;;;;5067055;28;20517;-50
2023/03/20 06:50:01;;;;;;;28.57;23.60;;;8.40;80.70;;;;;;5067231;28;20568;-51
2023/03/20 06:52:28;;;;;;;27.17;22.07;;;8.30;89.80;;;;;;5065887;28;20494;-51
2023/03/20 06:54:55;;;;;;;27.13;22.00;;;8.40;88.00;;;;;;5083023;28;20449;-51
2023/03/20 06:57:23;;;;;;;29.97;23.87;;;8.40;93.20;;;;;;5070256;28;20506;-51
2023/03/20 06:59:49;;;;;;;30.47;23.23;;;8.30;97.10;;;;;;5072703;28;20851;-51
2023/03/20 07:02:17;;;;;;;29.50;23.00;;;8.40;95.50;;;;;;5071671;28;22648;-50
2023/03/20 07:04:44;;;;;;;27.43;22.20;;;8.30;99.90;;;;;;5075547;28;20457;-50
2023/03/20 07:07:10;;;;;;;30.87;22.77;;;8.40;93.70;;;;;;5064230;28;20527;-50
2023/03/20 07:09:37;;;;;;;26.50;21.47;;;8.40;99.90;;;;;;5082029;28;20517;-50
2023/03/20 07:12:04;;;;;;;32.50;22.87;;;8.40;99.90;;;;;;5079808;28;20541;-49
2023/03/20 07:14:31;;;;;;;33.57;21.47;;;8.40;99.90;;;;;;5073444;28;20900;-50
2023/03/20 07:16:57;;;;;;;26.60;21.20;;;8.20;99.90;;;;;;5061114;28;20879;-49
2023/03/20 07:19:26;;;;;;;26.00;20.67;;;8.30;99.90;;;;;;5083881;28;20464;-50
2023/03/20 07:21:57;;;;;;;30.63;21.30;;;8.30;99.90;;;;;;5072430;28;20985;-50
2023/03/20 07:24:24;;;;;;;30.63;21.43;;;8.30;99.90;;;;;;5061206;28;20458;-50
2023/03/20 07:26:51;;;;;;;31.50;21.60;;;8.30;99.90;;;;;;5055326;28;20454;-52
2023/03/20 07:29:17;;;;;;;27.00;20.20;;;8.30;99.90;;;;;;5069555;28;20524;-50
2023/03/20 07:31:44;;;;;;;29.50;21.47;;;8.40;99.90;;;;;;5058531;28;20486;-51
2023/03/20 07:34:12;;;;;;;27.00;21.33;;;8.40;99.90;;;;;;5057254;28;20512;-51
2023/03/20 07:36:41;;;;;;;30.03;20.27;;;8.50;99.90;;;;;;5077185;28;21127;-50
2023/03/20 07:39:08;;;;;;;26.00;21.70;;;8.60;99.90;;;;;;5083193;28;20997;-50
2023/03/20 07:41:35;;;;;;;32.17;21.57;;;8.70;99.90;;;;;;5071922;28;20489;-50
2023/03/20 07:44:01;;;;;;;28.63;20.73;;;8.70;99.90;;;;;;5064400;28;20461;-50
2023/03/20 07:46:28;;;;;;;29.63;21.90;;;8.80;99.90;;;;;;5066330;28;21012;-50
2023/03/20 07:48:56;;;;;;;30.40;21.83;;;8.80;88.70;;;;;;5073573;28;20519;-50
2023/03/20 07:51:23;;;;;;;29.60;21.20;;;8.80;92.70;;;;;;5044542;28;20465;-52
2023/03/20 07:53:51;;;;;;;29.03;21.17;;;8.80;82.50;;;;;;5055557;28;20915;-51
2023/03/20 07:56:18;;;;;;;31.57;21.70;;;8.80;74.80;;;;;;5059240;28;20457;-50
2023/03/20 07:58:45;;;;;;;32.20;23.20;;;8.90;83.90;;;;;;5066432;28;20504;-51
2023/03/20 08:01:11;;;;;;;29.00;21.40;;;9.00;78.60;;;;;;5068321;28;20470;-50
2023/03/20 08:03:39;;;;;;;36.93;23.10;;;9.00;74.50;;;;;;5064698;28;20467;-51
2023/03/20 08:06:08;;;;;;;34.00;23.50;;;9.00;25.20;;;;;;5073690;28;20476;-51
2023/03/20 08:08:35;;;;;;;30.00;21.60;;;9.10;22.80;;;;;;5060151;28;20992;-51
2023/03/20 08:11:03;;;;;;;33.47;23.50;;;9.10;24.30;;;;;;5062287;28;20492;-51
2023/03/20 08:13:30;;;;;;;31.87;22.23;;;9.20;24.00;;;;;;5062463;28;20523;-50
2023/03/20 08:15:56;;;;;;;30.20;21.17;;;9.30;26.00;;;;;;5069640;28;20468;-51
2023/03/20 08:18:23;;;;;;;30.20;21.00;;;9.30;33.90;;;;;;5080672;28;20477;-51
2023/03/20 08:20:50;;;;;;;30.27;21.93;;;9.30;40.80;;;;;;5058144;28;20552;-51
2023/03/20 08:23:17;;;;;;;29.13;20.00;;;9.20;48.60;;;;;;5060494;28;20488;-51
2023/03/20 08:25:47;;;;;;;29.57;20.63;;;9.30;48.30;;;;;;5059909;28;20493;-50
2023/03/20 08:28:16;;;;;;;30.97;20.50;;;9.30;51.50;;;;;;5058342;28;20548;-51
2023/03/20 08:30:42;;;;;;;35.10;22.00;;;9.50;48.70;;;;;;5059468;28;20548;-50
2023/03/20 08:33:09;;;;;;;30.47;21.07;;;9.60;61.70;;;;;;5062011;28;20479;-50
2023/03/20 08:35:36;;;;;;;28.57;19.40;;;9.70;59.90;;;;;;5055747;28;20453;-52
2023/03/20 08:38:03;;;;;;;31.40;22.30;;;10.00;63.20;;;;;;5053772;28;20479;-51
2023/03/20 08:40:30;;;;;;;34.37;21.27;;;10.40;99.90;;;;;;5077321;28;20445;-51
2023/03/20 08:42:57;;;;;;;27.57;19.30;;;10.70;99.90;;;;;;5060055;28;20507;-51
2023/03/20 08:45:25;;;;;;;27.63;19.27;;;11.10;99.90;;;;;;5070151;28;20445;-51
2023/03/20 08:47:53;;;;;;;28.17;19.37;;;11.30;99.90;;;;;;5063045;28;20496;-51
2023/03/20 08:50:20;;;;;;;29.57;18.33;;;11.70;95.50;;;;;;5061144;28;20465;-50
2023/03/20 08:52:46;;;;;;;25.67;17.63;;;12.60;22.30;;;;;;5068880;28;21012;-51
2023/03/20 08:55:15;;;;;;;29.27;19.60;;;12.70;83.50;;;;;;5060823;28;20893;-52
2023/03/20 08:57:41;;;;;;;30.00;20.23;;;12.60;99.90;;;;;;5059800;28;20461;-52
2023/03/20 09:00:12;;;;;;;28.07;19.17;;;12.50;99.90;;;;;;5067351;28;20977;-50
2023/03/20 09:02:41;;;;;;;22.90;17.87;;;12.70;86.60;;;;;;5057275;28;20459;-52
2023/03/20 09:05:09;;;;;;;24.90;17.73;;;12.60;93.30;;;;;;5055209;28;20465;-51
2023/03/20 09:07:36;;;;;;;27.20;19.20;;;12.60;80.60;;;;;;5056631;28;20481;-52
2023/03/20 09:10:03;;;;;;;23.50;17.53;;;12.10;90.90;;;;;;5077787;28;21428;-52
2023/03/20 09:12:31;;;;;;;27.20;18.80;;;12.20;80.60;;;;;;5066213;28;20454;-51
2023/03/20 09:14:58;;;;;;;27.43;17.40;;;12.10;73.10;;;;;;5061122;28;20472;-50
2023/03/20 09:17:25;;;;;;;26.87;16.20;;;11.70;68.40;;;;;;5054218;28;20465;-50
2023/03/20 09:19:52;;;;;;;26.47;17.57;;;11.60;49.10;;;;;;5062583;28;20493;-50
2023/03/20 09:22:19;;;;;;;22.67;16.80;;;11.50;42.80;;;;;;5061591;28;20522;-52
2023/03/20 09:24:46;;;;;;;24.17;15.90;;;11.30;50.40;;;;;;5074115;28;20581;-51
2023/03/20 09:27:13;;;;;;;21.50;15.87;;;11.20;51.10;;;;;;5063483;28;20494;-50
2023/03/20 09:29:40;;;;;;;27.97;15.70;;;11.10;28.70;;;;;;5057842;28;20577;-51
2023/03/20 09:32:06;;;;;;;25.03;15.60;;;11.20;40.20;;;;;;5056121;28;20491;-50
2023/03/20 09:34:33;;;;;;;20.13;14.77;;;11.10;44.50;;;;;;5063268;28;20492;-50
2023/03/20 09:37:02;;;;;;;22.83;15.80;;;11.00;58.00;;;;;;5075402;28;20489;-51
2023/03/20 09:39:28;;;;;;;20.30;14.17;;;10.90;36.60;;;;;;5060815;28;20478;-51
2023/03/20 09:42:02;;;;;;;16.50;13.87;;;10.90;46.60;;;;;;5059082;28;20490;-51
2023/03/20 09:44:45;;;;;;;21.47;15.10;;;10.80;54.20;;;;;;5068200;28;20553;-51
2023/03/20 09:47:20;;;;;;;20.93;15.10;;;10.80;55.30;;;;;;5056497;28;20850;-51
2023/03/20 09:49:58;;;;;;;16.37;12.83;;;11.00;52.60;;;;;;5076167;28;21002;-52
2023/03/20 09:52:31;;;;;;;21.87;13.67;;;11.10;63.10;;;;;;5066422;28;20499;-51
2023/03/20 09:55:02;;;;;;;16.00;12.37;;;11.30;54.60;;;;;;5080104;28;21021;-50
2023/03/20 09:57:34;;;;;;;19.00;12.80;;;11.40;76.70;;;;;;5052257;28;20807;-51
2023/03/20 10:00:06;;;;;;;23.13;12.33;;;11.50;90.10;;;;;;5067133;28;20507;-51
2023/03/20 10:02:40;;;;;;;14.73;11.07;;;11.50;93.60;;;;;;5062431;28;20454;-53
2023/03/20 10:05:17;;;;;;;15.93;11.13;;;11.30;84.30;;;;;;5051004;28;20466;-51
2023/03/20 10:07:45;;;;;;;14.30;10.30;;;11.20;80.00;;;;;;5055324;28;20462;-51
2023/03/20 10:10:14;;;;;;;15.10;9.10;;;11.20;95.50;;;;;;5062195;28;20467;-51
2023/03/20 10:12:49;;;;;;;12.50;9.80;;;11.30;99.90;;;;;;5100240;22;20634;-56
2023/03/20 10:15:28;;;;;;;13.00;9.50;;;11.40;99.90;;;;;;5062469;28;20457;-55
2023/03/20 10:18:05;;;;;;;12.37;8.27;;;11.40;99.90;;;;;;5061639;28;20531;-56
2023/03/20 10:20:34;;;;;;;11.33;8.10;;;11.40;99.90;;;;;;5062588;28;20927;-55
2023/03/20 10:23:07;;;;;;;10.37;7.70;;;11.60;99.90;;;;;;5070598;28;20496;-55
2023/03/20 10:25:37;;;;;;;10.23;8.20;;;11.60;99.90;;;;;;5065325;28;20470;-56
2023/03/20 10:28:11;;;;;;;9.80;7.70;;;11.90;99.90;;;;;;5066797;28;20492;-56
2023/03/20 10:30:49;;;;;;;11.67;8.10;;;11.90;99.90;;;;;;5059540;28;20496;-56
2023/03/20 10:33:30;;;;;;;11.80;7.20;;;11.70;99.90;;;;;;5063845;28;20504;-56
2023/03/20 10:36:16;;;;;;;8.30;7.43;;;11.70;99.90;;;;;;5067690;28;20996;-55
2023/03/20 10:38:51;;;;;;;10.30;7.70;;;11.60;99.90;;;;;;5062931;28;20877;-56
2023/03/20 10:41:22;;;;;;;9.37;7.67;;;11.50;99.90;;;;;;5057628;28;20477;-56
2023/03/20 10:43:50;;;;;;;8.83;7.87;;;11.40;99.90;;;;;;5064848;28;20454;-55
2023/03/20 10:46:22;;;;;;;11.00;7.80;;;11.40;99.90;;;;;;5054828;28;20545;-54
2023/03/20 10:48:56;;;;;;;11.60;8.13;;;11.30;99.90;;;;;;5064829;28;20518;-56
2023/03/20 10:51:29;;;;;;;10.70;6.67;;;11.20;99.90;;;;;;5058096;28;20515;-56
2023/03/20 10:54:00;;;;;;;10.03;7.40;;;11.20;99.90;;;;;;5060373;28;20547;-56
2023/03/20 10:56:30;;;;;;;11.40;7.90;;;11.10;95.80;;;;;;5062196;28;20467;-56
2023/03/20 10:59:03;;;;;;;11.90;7.93;;;11.20;92.00;;;;;;5062203;28;20457;-56
2023/03/20 11:01:29;;;;;;;14.50;10.23;;;11.20;90.20;;;;;;5073103;28;20512;-50
2023/03/20 11:03:56;;;;;;;12.33;9.50;;;11.10;89.80;;;;;;5062699;28;20462;-50
2023/03/20 11:06:27;;;;;;;11.80;9.00;;;11.00;96.60;;;;;;5066130;28;20485;-50
2023/03/20 11:08:54;;;;;;;15.13;9.50;;;11.00;78.20;;;;;;5068261;28;20489;-50
2023/03/20 11:11:25;;;;;;;16.57;9.73;;;11.10;76.70;;;;;;5068469;28;20488;-50
2023/03/20 11:13:53;;;;;;;15.10;10.23;;;11.10;84.50;;;;;;5068701;28;20932;-50
2023/03/20 11:16:22;;;;;;;20.00;9.20;;;11.20;88.10;;;;;;5066430;28;20827;-50
2023/03/20 11:18:52;;;;;;;12.83;9.30;;;11.30;77.30;;;;;;5067490;28;20462;-50
2023/03/20 11:21:22;;;;;;;13.27;9.83;;;11.40;94.50;;;;;;5065687;28;20580;-50
2023/03/20 11:23:49;;;;;;;11.20;8.67;;;11.30;88.20;;;;;;5066625;28;20497;-50
2023/03/20 11:26:19;;;;;;;9.90;8.90;;;11.30;94.40;;;;;;5063418;28;20967;-50
2023/03/20 11:28:55;;;;;;;10.90;9.00;;;11.40;99.40;;;;;;5069837;28;20482;-50
2023/03/20 11:31:29;;;;;;;10.50;8.47;;;11.40;97.50;;;;;;5063577;28;20513;-50
2023/03/20 11:34:10;;;;;;;8.53;7.37;;;11.40;88.90;;;;;;5063784;28;20498;-49
2023/03/20 11:36:40;;;;;;;12.80;8.60;;;11.30;93.40;;;;;;5061984;28;20458;-51
2023/03/20 11:39:13;;;;;;;10.80;8.17;;;11.20;99.90;;;;;;5062294;28;20461;-49
2023/03/20 11:41:47;;;;;;;13.70;8.80;;;11.20;98.80;;;;;;5064920;28;20484;-50
2023/03/20 11:44:27;;;;;;;11.97;8.37;;;11.20;94.00;;;;;;5068659;28;20467;-50
2023/03/20 11:47:02;;;;;;;11.10;7.60;;;11.00;88.00;;;;;;5072547;28;20454;-49
2023/03/20 11:49:30;;;;;;;13.70;7.67;;;11.00;95.90;;;;;;5080055;28;20477;-51
2023/03/20 11:52:01;;;;;;;13.77;8.07;;;11.00;84.80;;;;;;5082266;28;20540;-50
2023/03/20 11:54:29;;;;;;;13.37;8.97;;;11.00;77.00;;;;;;5073596;28;20534;-50
2023/03/20 11:56:57;;;;;;;8.57;7.40;;;10.90;87.90;;;;;;5075246;28;20476;-52
2023/03/20 11:59:30;;;;;;;9.07;8.17;;;11.00;83.40;;;;;;5074180;28;20513;-50
2023/03/20 12:01:58;;;;;;;10.87;8.80;;;11.10;74.10;;;;;;5063230;28;20888;-50
2023/03/20 12:04:30;;;;;;;11.37;9.00;;;11.00;89.10;;;;;;5067502;28;20523;-51
2023/03/20 12:07:01;;;;;;;15.97;9.10;;;11.00;86.00;;;;;;5064457;28;20546;-51
2023/03/20 12:09:37;;;;;;;10.73;8.10;;;11.00;92.40;;;;;;5068862;28;20509;-51
2023/03/20 12:12:12;;;;;;;8.73;7.57;;;11.00;87.90;;;;;;5074507;28;20484;-53
2023/03/20 12:14:45;;;;;;;14.97;9.97;;;11.00;84.20;;;;;;5069881;28;20449;-50
2023/03/20 12:17:29;;;;;;;13.77;9.20;;;10.90;88.10;;;;;;5071610;28;20523;-50
2023/03/20 12:20:00;;;;;;;10.83;8.17;;;11.00;75.10;;;;;;5070182;28;20464;-50
2023/03/20 12:22:33;;;;;;;13.03;9.33;;;11.00;75.70;;;;;;5079647;28;20488;-49
2023/03/20 12:25:08;;;;;;;10.33;7.20;;;11.00;74.40;;;;;;5064657;28;20489;-50
2023/03/20 12:27:37;;;;;;;12.93;8.80;;;11.00;76.60;;;;;;5066677;28;20452;-50
2023/03/20 12:30:13;;;;;;;12.03;8.83;;;11.10;73.10;;;;;;5064689;28;21069;-49
2023/03/20 12:32:44;;;;;;;15.00;10.60;;;11.10;78.20;;;;;;5070585;28;20577;-49
2023/03/20 12:35:15;;;;;;;17.47;10.67;;;11.00;81.90;;;;;;5069895;28;20975;-50
2023/03/20 12:37:42;;;;;;;18.53;10.20;;;11.00;76.60;;;;;;5065021;28;20457;-50
2023/03/20 12:40:15;;;;;;;14.00;10.00;;;11.00;72.20;;;;;;5069405;28;20489;-50
2023/03/20 12:42:54;;;;;;;11.50;9.43;;;11.00;66.40;;;;;;5068937;28;20485;-50
2023/03/20 12:45:25;;;;;;;12.40;9.97;;;11.20;65.20;;;;;;5064096;28;20494;-51
2023/03/20 12:48:01;;;;;;;13.07;10.23;;;11.40;77.40;;;;;;5070319;28;20495;-50
2023/03/20 12:50:34;;;;;;;14.20;10.43;;;11.40;82.80;;;;;;5065672;28;20554;-50
2023/03/20 12:53:13;;;;;;;11.47;9.80;;;11.50;93.60;;;;;;5066514;28;20485;-50
2023/03/20 12:55:50;;;;;;;13.63;10.40;;;11.30;92.50;;;;;;5067839;28;20465;-49
2023/03/20 12:58:26;;;;;;;14.83;10.37;;;11.40;94.10;;;;;;5070065;28;20489;-49